KMTJ

Montrose Regional Airport

Montrose, Colorado, USA
METAR KMTJ 162353Z AUTO 33005KT 10SM CLR 02/M14 A2978 RMK AO2 SLP094 T00171139 10061 20000 53003
Observed Flight Rules
Dec-16 @ 23:53 UTC (30 minutes ago) Visual Flight Rules
Wind Visibility Clouds
330° at 5 knots 10 miles
  • Clear skies
Temperatures Readings
Current 2°C / 36°F
Dewpoint -14°C / 7°F
Humidity 30%
Altimeter 29.78" Hg
Pressure 1009.4 hPa
Elevation 1750
METAR KMTJ 162353Z AUTO 33005KT 10SM CLR 02/M14 A2978 RMK AO2 SLP094 T00171139 10061 20000 53003
Observed Flight Rules
Dec-16 @ 23:53 UTC
(30 minutes ago)
VFR
Wind Visibility
330° at 5 knots 10 miles
Clouds
  • Clear skies
Temperature Dewpoint
2°C / 36°F -14°C / 7°F
Humidity Altimeter Pressure
30% 29.78" Hg 1009.4 hPa